Time;durP1;ratioP1;P1;durP2;ratioP2;P2;SDS_P1;SDS_P2;PMS_P1;PMS_P2;Temp;Humidity;BMP_temperature;BMP_pressure;BME280_temperature;BME280_humidity;BME280_pressure;Samples;Min_cycle;Max_cycle;Signal;HPM_P1;HPM_P2
2021/08/15 00:01:04;;;;;;;;;;;;;;;25.39;41.72;101261.72;5005317;28;98986;-78
2021/08/15 00:03:31;;;;;;;;;;;;;;;24.81;43.25;101265.97;5012036;28;96841;-78
2021/08/15 00:05:57;;;;;;;;;;;;;;;25.28;42.16;101261.81;5011687;28;96899;-78
2021/08/15 00:08:24;;;;;;;;;;;;;;;24.60;43.82;101260.59;5013662;28;98649;-78
2021/08/15 00:10:51;;;;;;;;;;;;;;;24.68;43.34;101262.63;5012584;28;100624;-78
2021/08/15 00:13:17;;;;;;;;;;;;;;;24.83;43.37;101258.56;5011325;28;97084;-78
2021/08/15 00:15:43;;;;;;;;;;;;;;;24.78;43.32;101264.41;5019194;28;97337;-78
2021/08/15 00:18:09;;;;;;;;;;;;;;;24.75;43.52;101261.09;5008154;28;99202;-78
2021/08/15 00:20:36;;;;;;;;;;;;;;;24.30;44.50;101263.19;5006572;28;98845;-78
2021/08/15 00:23:02;;;;;;;;;;;;;;;24.51;44.04;101259.53;5009521;28;96927;-78
2021/08/15 00:25:30;;;;;;;;;;;;;;;24.80;43.42;101261.56;5008212;28;97282;-79
2021/08/15 00:27:56;;;;;;;;;;;;;;;24.88;43.14;101257.19;5006072;28;99207;-77
2021/08/15 00:30:22;;;;;;;;;;;;;;;25.00;42.86;101258.88;5007630;28;100738;-77
2021/08/15 00:32:49;;;;;;;;;;;;;;;24.73;43.41;101263.09;5005216;28;97357;-77
2021/08/15 00:35:15;;;;;;;;;;;;;;;24.84;42.78;101258.44;5009221;28;97228;-75
2021/08/15 00:37:41;;;;;;;;;;;;;;;24.64;43.03;101256.63;4999424;28;98936;-77
2021/08/15 00:40:09;;;;;;;;;;;;;;;24.69;43.19;101254.38;5004193;28;99207;-77
2021/08/15 00:42:36;;;;;;;;;;;;;;;24.62;42.99;101264.84;5006389;28;98108;-77
2021/08/15 00:45:03;;;;;;;;;;;;;;;24.79;43.09;101267.94;5011148;28;98691;-77
2021/08/15 00:47:30;;;;;;;;;;;;;;;24.75;43.07;101263.78;5014006;28;98959;-76
2021/08/15 00:49:57;;;;;;;;;;;;;;;24.69;43.35;101254.38;5026050;28;98029;-78
2021/08/15 00:52:23;;;;;;;;;;;;;;;24.77;43.24;101257.28;5032081;28;96817;-78
2021/08/15 00:54:49;;;;;;;;;;;;;;;24.85;42.90;101257.47;5021959;28;96937;-78
2021/08/15 00:57:15;;;;;;;;;;;;;;;24.85;43.11;101259.31;5008473;28;98960;-77
2021/08/15 00:59:44;;;;;;;;;;;;;;;24.91;42.91;101251.56;5005918;28;98862;-77
2021/08/15 01:02:13;;;;;;;;;;;;;;;24.83;43.04;101255.88;5015651;28;96963;-78
2021/08/15 01:04:40;;;;;;;;;;;;;;;24.68;43.16;101258.06;5016369;28;96837;-78
2021/08/15 01:07:07;;;;;;;;;;;;;;;24.58;43.21;101257.16;5010529;28;99034;-78
2021/08/15 01:09:33;;;;;;;;;;;;;;;24.72;43.11;101254.13;5015904;28;99205;-78
2021/08/15 01:12:00;;;;;;;;;;;;;;;24.44;43.33;101252.94;5014906;28;96769;-77
2021/08/15 01:14:26;;;;;;;;;;;;;;;24.35;43.53;101252.88;5010357;28;97622;-77
2021/08/15 01:16:54;;;;;;;;;;;;;;;24.41;43.55;101250.50;5002416;28;98911;-77
2021/08/15 01:19:27;;;;;;;;;;;;;;;24.52;43.49;101253.13;5015467;28;98805;-78
2021/08/15 01:21:54;;;;;;;;;;;;;;;24.66;43.07;101257.34;5013209;28;97355;-77
2021/08/15 01:24:20;;;;;;;;;;;;;;;24.57;43.60;101252.72;5015218;28;96855;-78
2021/08/15 01:26:47;;;;;;;;;;;;;;;24.71;43.71;101256.94;5012047;28;99492;-77
2021/08/15 01:29:14;;;;;;;;;;;;;;;24.42;45.21;101252.19;4999826;28;99095;-77
2021/08/15 01:31:40;;;;;;;;;;;;;;;24.26;45.81;101261.75;5013830;28;96815;-77
2021/08/15 01:34:07;;;;;;;;;;;;;;;24.07;46.24;101257.88;5015480;28;96873;-77
2021/08/15 01:36:33;;;;;;;;;;;;;;;23.92;46.93;101253.75;5009182;28;98879;-78
2021/08/15 01:38:59;;;;;;;;;;;;;;;23.89;46.90;101259.41;5013268;28;98959;-78
2021/08/15 01:41:25;;;;;;;;;;;;;;;23.80;46.94;101254.78;5012480;28;97239;-77
2021/08/15 01:43:52;;;;;;;;;;;;;;;23.80;47.21;101250.22;5012179;28;96884;-77
2021/08/15 01:46:21;;;;;;;;;;;;;;;23.93;46.84;101255.47;5012325;28;97896;-78
2021/08/15 01:48:47;;;;;;;;;;;;;;;23.95;46.91;101258.03;5011322;28;97721;-77
2021/08/15 01:51:14;;;;;;;;;;;;;;;23.73;47.85;101256.25;5013561;28;97051;-78
2021/08/15 01:53:40;;;;;;;;;;;;;;;23.57;48.16;101253.94;5008373;28;96882;-78
2021/08/15 01:56:07;;;;;;;;;;;;;;;23.69;47.90;101255.66;5014928;28;98106;-77
2021/08/15 01:58:33;;;;;;;;;;;;;;;23.42;48.63;101253.34;5006902;28;99235;-77
2021/08/15 02:00:59;;;;;;;;;;;;;;;23.41;48.92;101258.88;5013649;28;96916;-76
2021/08/15 02:03:27;;;;;;;;;;;;;;;23.12;49.53;101258.50;5014369;28;96814;-77
2021/08/15 02:05:53;;;;;;;;;;;;;;;23.23;49.57;101258.53;5008492;28;97945;-77
2021/08/15 02:08:20;;;;;;;;;;;;;;;23.11;49.69;101255.91;5008232;28;99328;-78
2021/08/15 02:10:46;;;;;;;;;;;;;;;23.02;49.86;101255.69;5008553;28;98008;-78
2021/08/15 02:13:12;;;;;;;;;;;;;;;23.12;49.61;101252.25;5005361;28;96827;-77
2021/08/15 02:15:38;;;;;;;;;;;;;;;23.27;48.72;101251.88;5011634;28;99403;-77
2021/08/15 02:18:05;;;;;;;;;;;;;;;23.28;48.96;101259.00;5017753;28;97684;-77
2021/08/15 02:20:34;;;;;;;;;;;;;;;23.51;48.56;101251.75;5022838;28;96533;-75
2021/08/15 02:23:00;;;;;;;;;;;;;;;23.43;48.69;101251.50;5015246;28;97015;-77
2021/08/15 02:25:27;;;;;;;;;;;;;;;23.21;49.38;101241.59;5007558;28;97982;-77
2021/08/15 02:27:54;;;;;;;;;;;;;;;23.10;49.71;101235.38;5024885;28;99086;-77
2021/08/15 02:30:21;;;;;;;;;;;;;;;23.10;49.82;101238.06;5012176;28;97132;-77
2021/08/15 02:32:48;;;;;;;;;;;;;;;23.04;50.10;101237.53;5008928;28;96764;-77
2021/08/15 02:35:15;;;;;;;;;;;;;;;23.11;49.92;101246.00;5028171;28;98833;-76
2021/08/15 02:37:46;;;;;;;;;;;;;;;23.17;49.87;101244.69;5026019;28;97694;-78
2021/08/15 02:40:13;;;;;;;;;;;;;;;23.35;49.38;101235.94;5031208;28;96812;-77
2021/08/15 02:42:40;;;;;;;;;;;;;;;23.00;48.72;101228.00;5014134;28;96877;-76
2021/08/15 02:45:08;;;;;;;;;;;;;;;23.18;49.60;101231.03;5012585;28;99124;-77
2021/08/15 02:47:34;;;;;;;;;;;;;;;23.22;49.56;101232.53;5010853;28;97119;-77
2021/08/15 02:50:00;;;;;;;;;;;;;;;23.12;50.06;101226.16;5004629;28;96919;-78
2021/08/15 02:52:26;;;;;;;;;;;;;;;22.92;50.56;101224.19;5007040;28;96991;-77
2021/08/15 02:54:54;;;;;;;;;;;;;;;23.11;50.25;101223.56;5006657;28;98927;-78
2021/08/15 02:57:20;;;;;;;;;;;;;;;22.88;50.76;101230.81;5014893;28;98764;-77
2021/08/15 02:59:47;;;;;;;;;;;;;;;23.03;50.32;101224.22;5006774;28;97132;-77
2021/08/15 03:02:14;;;;;;;;;;;;;;;22.78;51.09;101227.97;5010642;28;96899;-78
2021/08/15 03:04:40;;;;;;;;;;;;;;;22.57;51.59;101227.81;5008430;28;98965;-77
2021/08/15 03:07:07;;;;;;;;;;;;;;;22.64;51.12;101215.56;5012988;28;98294;-77
2021/08/15 03:09:33;;;;;;;;;;;;;;;22.60;51.65;101215.94;5010759;28;97119;-77
2021/08/15 03:12:00;;;;;;;;;;;;;;;22.72;51.46;101222.19;5008386;28;97276;-77
2021/08/15 03:14:27;;;;;;;;;;;;;;;22.49;51.96;101216.78;5023655;28;98929;-77
2021/08/15 03:16:53;;;;;;;;;;;;;;;22.43;52.00;101224.47;5028297;28;99171;-78
2021/08/15 03:19:21;;;;;;;;;;;;;;;22.41;52.35;101213.81;5020217;28;96788;-77
2021/08/15 03:21:47;;;;;;;;;;;;;;;22.54;51.93;101213.72;5014949;28;96943;-77
2021/08/15 03:24:14;;;;;;;;;;;;;;;22.53;52.38;101222.75;5014057;28;99283;-76
2021/08/15 03:26:44;;;;;;;;;;;;;;;22.47;52.42;101212.47;5013524;28;99395;-77
2021/08/15 03:29:12;;;;;;;;;;;;;;;22.31;52.94;101214.66;5013502;28;96887;-77
2021/08/15 03:31:38;;;;;;;;;;;;;;;22.12;53.16;101209.84;5013728;28;97145;-77
2021/08/15 03:34:05;;;;;;;;;;;;;;;22.07;53.43;101204.78;5012265;28;98780;-76
2021/08/15 03:36:31;;;;;;;;;;;;;;;22.10;53.58;101212.63;5013015;28;98054;-77
2021/08/15 03:38:57;;;;;;;;;;;;;;;22.27;52.97;101214.88;5004374;28;96863;-76
2021/08/15 03:41:24;;;;;;;;;;;;;;;22.33;52.80;101215.38;5012914;28;97472;-76
2021/08/15 03:43:50;;;;;;;;;;;;;;;22.17;53.12;101210.31;5012287;28;99276;-77
2021/08/15 03:46:17;;;;;;;;;;;;;;;22.00;54.01;101208.91;5008365;28;98283;-78
2021/08/15 03:48:44;;;;;;;;;;;;;;;22.16;53.31;101214.00;5005204;28;96956;-77
2021/08/15 03:51:10;;;;;;;;;;;;;;;22.22;53.18;101218.91;5012933;28;96960;-77
2021/08/15 03:53:37;;;;;;;;;;;;;;;22.31;52.64;101212.81;5006235;28;97665;-77
2021/08/15 03:56:03;;;;;;;;;;;;;;;22.29;52.92;101221.97;5011545;28;98840;-77
2021/08/15 03:58:29;;;;;;;;;;;;;;;22.31;52.50;101223.59;5007847;28;96897;-78
2021/08/15 04:00:56;;;;;;;;;;;;;;;22.37;52.66;101217.72;5010695;28;96865;-77
2021/08/15 04:03:24;;;;;;;;;;;;;;;22.29;53.32;101220.16;4993562;28;98793;-78
2021/08/15 04:05:50;;;;;;;;;;;;;;;22.35;52.75;101222.38;5012877;28;99203;-76
2021/08/15 04:08:16;;;;;;;;;;;;;;;22.19;53.24;101217.28;5012891;28;96931;-76
2021/08/15 04:10:42;;;;;;;;;;;;;;;22.25;53.02;101224.06;5013017;28;96954;-77
2021/08/15 04:13:09;;;;;;;;;;;;;;;22.39;52.45;101226.53;5012087;28;99277;-78
2021/08/15 04:15:35;;;;;;;;;;;;;;;22.41;52.43;101226.41;5012346;28;98798;-77
2021/08/15 04:18:01;;;;;;;;;;;;;;;22.44;52.32;101221.66;5005865;28;96896;-77
2021/08/15 04:20:29;;;;;;;;;;;;;;;22.27;52.65;101219.41;5002842;28;97184;-78
2021/08/15 04:22:55;;;;;;;;;;;;;;;22.33;52.66;101221.63;5012001;28;99252;-77
2021/08/15 04:25:21;;;;;;;;;;;;;;;22.46;52.43;101229.59;5013319;28;99327;-77
2021/08/15 04:27:48;;;;;;;;;;;;;;;22.53;51.93;101223.63;5010015;28;96721;-77
2021/08/15 04:30:14;;;;;;;;;;;;;;;22.27;52.70;101222.94;5014513;28;97392;-76
2021/08/15 04:32:40;;;;;;;;;;;;;;;22.41;52.18;101218.34;5015265;28;99020;-77
2021/08/15 04:35:07;;;;;;;;;;;;;;;22.56;51.90;101212.63;5015186;28;98812;-76
2021/08/15 04:37:35;;;;;;;;;;;;;;;22.76;51.31;101207.53;5008065;28;97073;-75
2021/08/15 04:40:01;;;;;;;;;;;;;;;22.99;50.20;101218.19;5004689;28;96947;-78
2021/08/15 04:42:28;;;;;;;;;;;;;;;22.94;49.84;101223.09;5010057;28;99419;-79
2021/08/15 04:44:54;;;;;;;;;;;;;;;23.00;49.23;101221.75;5015481;28;98843;-78
2021/08/15 04:47:20;;;;;;;;;;;;;;;23.16;48.54;101216.00;5007566;28;96919;-77
2021/08/15 04:49:48;;;;;;;;;;;;;;;23.36;47.86;101218.78;5022651;28;96957;-77
2021/08/15 04:52:14;;;;;;;;;;;;;;;23.45;47.95;101212.63;5015742;28;98907;-77
2021/08/15 04:54:42;;;;;;;;;;;;;;;23.60;47.18;101210.56;5015967;28;99257;-78
2021/08/15 04:57:08;;;;;;;;;;;;;;;23.64;47.30;101205.75;5018277;28;98481;-78
2021/08/15 04:59:34;;;;;;;;;;;;;;;23.71;47.07;101204.25;5024168;28;97162;-77
2021/08/15 05:02:03;;;;;;;;;;;;;;;23.80;46.57;101203.50;5015434;28;99306;-77
2021/08/15 05:04:29;;;;;;;;;;;;;;;23.80;47.03;101201.66;5013057;28;99463;-77
2021/08/15 05:06:55;;;;;;;;;;;;;;;23.96;46.28;101201.22;5012863;28;97036;-78
2021/08/15 05:09:21;;;;;;;;;;;;;;;24.10;45.67;101203.59;5014135;28;96911;-78
2021/08/15 05:11:49;;;;;;;;;;;;;;;24.18;45.58;101201.13;5014383;28;99254;-78
2021/08/15 05:14:15;;;;;;;;;;;;;;;24.30;45.51;101193.84;5011721;28;99197;-78
2021/08/15 05:16:41;;;;;;;;;;;;;;;24.36;45.17;101198.69;5013653;28;96889;-78
2021/08/15 05:19:08;;;;;;;;;;;;;;;24.44;45.26;101198.03;5012711;28;96823;-78
2021/08/15 05:21:34;;;;;;;;;;;;;;;24.52;44.87;101203.66;5007717;28;98884;-77
2021/08/15 05:24:00;;;;;;;;;;;;;;;24.53;44.54;101200.81;5014785;28;99309;-77
2021/08/15 05:26:27;;;;;;;;;;;;;;;24.76;44.18;101200.66;5013183;28;96915;-76
2021/08/15 05:28:57;;;;;;;;;;;;;;;24.89;43.48;101212.97;5015709;28;96969;-78
2021/08/15 05:31:23;;;;;;;;;;;;;;;25.02;42.09;101207.34;5013269;28;99555;-78
2021/08/15 05:33:50;;;;;;;;;;;;;;;24.93;42.53;101200.94;5014692;28;98815;-77
2021/08/15 05:36:16;;;;;;;;;;;;;;;24.91;42.93;101202.03;5009900;28;96912;-77
2021/08/15 05:38:42;;;;;;;;;;;;;;;24.91;42.73;101205.59;5022345;28;96944;-77
2021/08/15 05:41:09;;;;;;;;;;;;;;;25.05;42.09;101215.19;5021302;28;99529;-76
2021/08/15 05:43:35;;;;;;;;;;;;;;;24.86;42.51;101218.63;5017464;28;97951;-76
2021/08/15 05:46:03;;;;;;;;;;;;;;;24.84;42.57;101215.19;5012251;28;97600;-78
2021/08/15 05:48:29;;;;;;;;;;;;;;;25.15;41.72;101216.06;5015773;28;97213;-77
2021/08/15 05:50:55;;;;;;;;;;;;;;;25.29;41.06;101214.84;5015546;28;98904;-77
2021/08/15 05:53:21;;;;;;;;;;;;;;;25.25;41.68;101218.81;5015993;28;99048;-78
2021/08/15 05:55:48;;;;;;;;;;;;;;;25.48;41.28;101217.59;5008076;28;96786;-78
2021/08/15 05:58:14;;;;;;;;;;;;;;;25.75;40.34;101223.22;5013570;28;97282;-77
2021/08/15 06:00:40;;;;;;;;;;;;;;;25.64;40.87;101220.66;5007954;28;98815;-79
2021/08/15 06:03:08;;;;;;;;;;;;;;;25.72;41.03;101212.72;5013672;28;99274;-78
2021/08/15 06:05:34;;;;;;;;;;;;;;;25.87;40.93;101217.69;5016028;28;97345;-80
2021/08/15 06:08:00;;;;;;;;;;;;;;;25.75;40.63;101216.97;5015253;28;96935;-78
2021/08/15 06:10:27;;;;;;;;;;;;;;;26.01;40.39;101203.72;5014787;28;98852;-77
2021/08/15 06:12:53;;;;;;;;;;;;;;;26.14;40.40;101210.56;5014832;28;98990;-76
2021/08/15 06:15:19;;;;;;;;;;;;;;;25.55;41.40;101213.34;5016201;28;97499;-78
2021/08/15 06:17:46;;;;;;;;;;;;;;;26.72;39.47;101217.75;5013304;28;98448;-78
2021/08/15 06:20:14;;;;;;;;;;;;;;;26.43;39.95;101213.28;5015505;28;99254;-77
2021/08/15 06:22:41;;;;;;;;;;;;;;;26.19;40.48;101210.97;5018064;28;97597;-77
2021/08/15 06:25:08;;;;;;;;;;;;;;;26.43;39.88;101212.44;5018115;28;97175;-79
2021/08/15 06:27:35;;;;;;;;;;;;;;;26.36;40.13;101214.00;5017815;28;96854;-78
2021/08/15 06:30:01;;;;;;;;;;;;;;;26.41;39.76;101217.97;5016597;28;98910;-78
2021/08/15 06:32:27;;;;;;;;;;;;;;;26.64;39.50;101212.25;5012458;28;101402;-78
2021/08/15 06:34:54;;;;;;;;;;;;;;;26.66;39.71;101212.94;5018261;28;97240;-78
2021/08/15 06:37:22;;;;;;;;;;;;;;;26.76;39.38;101209.22;5015845;28;96986;-78
2021/08/15 06:39:48;;;;;;;;;;;;;;;26.92;39.30;101208.59;5022991;28;100357;-77
2021/08/15 06:42:15;;;;;;;;;;;;;;;27.22;38.57;101210.19;5028090;28;97744;-79
2021/08/15 06:44:41;;;;;;;;;;;;;;;26.87;39.70;101210.88;5027957;28;96651;-76
2021/08/15 06:47:08;;;;;;;;;;;;;;;26.80;39.64;101210.59;5019060;28;96691;-78
2021/08/15 06:49:34;;;;;;;;;;;;;;;26.82;39.61;101205.91;5005194;28;99200;-78
2021/08/15 06:52:00;;;;;;;;;;;;;;;26.83;39.89;101204.91;5014859;28;97032;-80
2021/08/15 06:54:29;;;;;;;;;;;;;;;26.98;39.40;101208.00;5017310;28;96895;-78
2021/08/15 06:56:55;;;;;;;;;;;;;;;26.58;40.11;101213.69;5014767;28;97070;-79
2021/08/15 06:59:22;;;;;;;;;;;;;;;27.05;39.55;101210.97;5012818;28;98280;-79
2021/08/15 07:01:48;;;;;;;;;;;;;;;27.32;39.17;101214.53;5006448;28;97990;-77
2021/08/15 07:04:14;;;;;;;;;;;;;;;27.16;39.13;101211.66;5014813;28;97222;-79
2021/08/15 07:06:41;;;;;;;;;;;;;;;27.26;39.18;101220.56;5015007;28;96902;-79
2021/08/15 07:09:11;;;;;;;;;;;;;;;27.63;38.42;101227.84;5015712;28;99256;-78
2021/08/15 07:11:38;;;;;;;;;;;;;;;27.47;37.91;101225.75;5011572;28;96952;-78
2021/08/15 07:14:05;;;;;;;;;;;;;;;27.11;38.69;101213.94;5023197;28;96719;-78
2021/08/15 07:16:32;;;;;;;;;;;;;;;27.00;38.53;101222.28;5021911;28;97223;-77
2021/08/15 07:18:58;;;;;;;;;;;;;;;26.82;39.43;101224.03;5030777;28;97888;-79
2021/08/15 07:21:28;;;;;;;;;;;;;;;26.50;40.00;101209.00;5025511;28;99067;-79
2021/08/15 07:23:54;;;;;;;;;;;;;;;26.85;39.76;101207.44;5016223;28;97287;-78
2021/08/15 07:26:21;;;;;;;;;;;;;;;26.92;39.11;101217.59;5016250;28;99272;-79
2021/08/15 07:28:48;;;;;;;;;;;;;;;27.47;38.05;101222.19;5017414;28;99395;-78
2021/08/15 07:31:14;;;;;;;;;;;;;;;27.38;37.93;101223.94;5011314;28;98977;-79
2021/08/15 07:33:41;;;;;;;;;;;;;;;27.43;37.72;101224.34;5014113;28;97241;-79
2021/08/15 07:36:08;;;;;;;;;;;;;;;26.63;39.05;101224.94;5015508;28;96987;-79
2021/08/15 07:38:35;;;;;;;;;;;;;;;27.17;38.36;101223.34;5017270;28;97627;-77
2021/08/15 07:41:01;;;;;;;;;;;;;;;26.93;38.14;101222.00;5014241;28;97590;-77
2021/08/15 07:43:30;;;;;;;;;;;;;;;27.50;37.48;101230.03;5016845;28;96756;-78
2021/08/15 07:45:59;;;;;;;;;;;;;;;27.78;37.08;101226.28;5027014;28;96797;-78
2021/08/15 07:48:26;;;;;;;;;;;;;;;27.94;36.67;101222.91;5025429;28;97567;-79
2021/08/15 07:53:48;;;;;;;;;;;;;;;27.90;36.73;101208.75;5016256;28;97268;-80
2021/08/15 07:59:00;;;;;;;;;;;;;;;27.54;37.11;101202.47;5030436;28;98498;-78
2021/08/15 08:01:39;;;;;;;;;;;;;;;28.01;36.43;101203.09;5020299;28;96771;-79
2021/08/15 08:04:07;;;;;;;;;;;;;;;28.30;36.00;101193.84;5024455;28;96766;-77
2021/08/15 08:06:35;;;;;;;;;;;;;;;28.20;36.03;101201.25;5039179;28;96967;-78
2021/08/15 08:09:03;;;;;;;;;;;;;;;28.02;36.24;101207.53;5040306;28;96702;-76
2021/08/15 08:11:32;;;;;;;;;;;;;;;28.10;35.71;101204.00;5033215;28;99449;-78
2021/08/15 08:13:58;;;;;;;;;;;;;;;28.31;35.49;101201.84;5028734;28;96591;-79
2021/08/15 08:16:24;;;;;;;;;;;;;;;28.66;34.85;101198.19;5014205;28;96983;-77
2021/08/15 08:18:53;;;;;;;;;;;;;;;28.89;34.95;101187.63;5018375;28;97689;-78
2021/08/15 08:21:19;;;;;;;;;;;;;;;29.02;34.18;101193.47;5014831;28;98957;-78
2021/08/15 08:23:46;;;;;;;;;;;;;;;28.88;34.22;101186.78;5017690;28;96760;-77
2021/08/15 08:26:12;;;;;;;;;;;;;;;28.52;34.79;101190.63;5028764;28;96817;-78
2021/08/15 08:28:39;;;;;;;;;;;;;;;28.92;33.68;101185.47;5013221;28;97886;-78
2021/08/15 08:31:05;;;;;;;;;;;;;;;28.92;33.52;101177.28;5017249;28;97925;-78
2021/08/15 08:33:31;;;;;;;;;;;;;;;28.59;33.80;101188.13;5017207;28;96686;-78
2021/08/15 08:36:15;;;;;;;;;;;;;;;29.02;33.32;101185.31;5019770;28;97929;-79
2021/08/15 08:38:41;;;;;;;;;;;;;;;29.11;33.03;101173.47;5016770;28;99221;-79
2021/08/15 08:41:08;;;;;;;;;;;;;;;29.12;32.91;101171.59;5015744;28;99217;-77
2021/08/15 08:43:34;;;;;;;;;;;;;;;29.54;32.37;101166.13;5013874;28;97065;-79
2021/08/15 08:46:11;;;;;;;;;;;;;;;29.57;32.45;101160.34;5016727;28;98880;-80
2021/08/15 08:48:39;;;;;;;;;;;;;;;29.49;31.42;101163.91;5018223;28;101452;-77
2021/08/15 08:51:06;;;;;;;;;;;;;;;29.61;31.44;101154.41;5013378;28;98876;-79
2021/08/15 08:53:34;;;;;;;;;;;;;;;29.63;31.45;101154.25;5018195;28;96960;-80
2021/08/15 08:56:00;;;;;;;;;;;;;;;29.52;31.10;101149.97;5009951;28;96890;-80
2021/08/15 08:58:26;;;;;;;;;;;;;;;29.05;31.42;101155.06;5011581;28;98131;-78
2021/08/15 09:00:53;;;;;;;;;;;;;;;28.92;31.67;101147.38;5015942;28;97578;-78
2021/08/15 09:03:19;;;;;;;;;;;;;;;29.46;31.42;101153.38;5018526;28;96777;-77
2021/08/15 09:05:51;;;;;;;;;;;;;;;29.32;30.74;101159.44;5018553;28;96960;-79
2021/08/15 09:08:25;;;;;;;;;;;;;;;29.18;30.46;101157.34;5004077;28;98831;-77
2021/08/15 09:10:59;;;;;;;;;;;;;;;28.57;31.87;101149.34;5016011;28;100533;-79
2021/08/15 09:13:26;;;;;;;;;;;;;;;29.06;30.96;101145.91;5014036;28;96814;-81
2021/08/15 09:15:56;;;;;;;;;;;;;;;29.16;30.84;101137.59;5016645;28;96854;-78
2021/08/15 09:18:33;;;;;;;;;;;;;;;29.22;30.42;101135.06;5020862;28;98941;-79
2021/08/15 09:21:00;;;;;;;;;;;;;;;29.47;29.30;101146.88;5008628;28;99129;-79
2021/08/15 09:23:30;;;;;;;;;;;;;;;29.84;28.49;101138.25;5023192;28;96982;-79
2021/08/15 09:26:19;;;;;;;;;;;;;;;28.87;29.24;101146.16;5029075;28;96519;-79
2021/08/15 09:28:46;;;;;;;;;;;;;;;29.54;28.88;101145.19;5031470;28;101917;-80
2021/08/15 09:31:23;;;;;;;;;;;;;;;29.53;27.98;101157.13;5035050;28;97752;-78
2021/08/15 09:33:50;;;;;;;;;;;;;;;29.76;27.94;101159.19;5033960;28;96836;-79
2021/08/15 09:36:24;;;;;;;;;;;;;;;29.00;29.24;101151.16;5023075;28;96930;-78
2021/08/15 09:38:54;;;;;;;;;;;;;;;29.35;28.92;101131.88;5025944;28;98183;-78
2021/08/15 09:41:24;;;;;;;;;;;;;;;29.62;29.07;101125.31;5023849;28;97272;-79
2021/08/15 09:44:18;;;;;;;;;;;;;;;29.50;29.12;101122.06;5009749;28;96919;-81
2021/08/15 09:47:00;;;;;;;;;;;;;;;29.19;29.45;101118.22;5019652;28;98854;-78
2021/08/15 09:49:38;;;;;;;;;;;;;;;29.18;29.59;101120.09;5020416;28;98959;-80
2021/08/15 09:52:06;;;;;;;;;;;;;;;29.38;29.79;101107.06;5018645;28;97238;-79
2021/08/15 09:54:34;;;;;;;;;;;;;;;29.39;30.03;101106.06;5019613;28;97216;-79
2021/08/15 09:57:04;;;;;;;;;;;;;;;29.42;29.81;101102.97;5021136;28;96695;-79
2021/08/15 09:59:33;;;;;;;;;;;;;;;29.41;29.54;101106.72;5015915;28;101954;-79
2021/08/15 10:02:07;;;;;;;;;;;;;;;29.35;29.85;101096.50;5018279;28;102433;-79
2021/08/15 10:04:33;;;;;;;;;;;;;;;28.76;29.96;101087.47;5003128;28;96848;-78
2021/08/15 10:06:59;;;;;;;;;;;;;;;29.25;29.88;101079.47;5011025;28;97145;-79
2021/08/15 10:09:30;;;;;;;;;;;;;;;29.50;29.65;101069.47;5009376;28;98841;-80
2021/08/15 10:11:59;;;;;;;;;;;;;;;29.59;29.36;101071.19;5012365;28;99435;-79
2021/08/15 10:14:25;;;;;;;;;;;;;;;29.14;28.40;101077.06;5014029;28;98794;-80
2021/08/15 10:16:54;;;;;;;;;;;;;;;29.30;27.76;101077.94;5013536;28;97045;-78
2021/08/15 10:19:29;;;;;;;;;;;;;;;29.64;27.79;101064.22;5010246;28;97830;-80
2021/08/15 10:21:57;;;;;;;;;;;;;;;29.88;28.19;101084.28;5008893;28;98766;-79
2021/08/15 10:24:39;;;;;;;;;;;;;;;30.38;26.83;101089.53;5011613;28;97103;-79
2021/08/15 10:27:08;;;;;;;;;;;;;;;30.70;26.73;101103.09;5009973;28;98646;-79
2021/08/15 10:29:37;;;;;;;;;;;;;;;30.71;26.67;101101.22;5013628;28;98878;-79
2021/08/15 10:32:07;;;;;;;;;;;;;;;30.54;26.37;101099.56;5014381;28;97522;-78
2021/08/15 10:34:48;;;;;;;;;;;;;;;30.65;26.76;101096.47;5009201;28;97266;-79
2021/08/15 10:37:41;;;;;;;;;;;;;;;30.73;26.30;101093.69;5011215;28;98389;-78
2021/08/15 10:40:08;;;;;;;;;;;;;;;30.77;26.41;101092.31;4983704;28;99177;-78
2021/08/15 10:42:46;;;;;;;;;;;;;;;30.65;27.16;101071.91;5013938;28;101822;-79
2021/08/15 10:45:20;;;;;;;;;;;;;;;30.22;28.53;101074.06;5010752;28;97760;-80
2021/08/15 10:48:09;;;;;;;;;;;;;;;29.80;28.68;101062.53;5014012;28;96923;-80
2021/08/15 10:50:41;;;;;;;;;;;;;;;29.93;28.83;101068.34;5015762;28;100619;-80
2021/08/15 10:53:37;;;;;;;;;;;;;;;30.00;28.73;101066.59;5017131;28;98799;-81
2021/08/15 10:56:05;;;;;;;;;;;;;;;29.75;29.74;101060.28;5015207;28;96746;-78
2021/08/15 10:58:36;;;;;;;;;;;;;;;29.84;29.96;101064.72;5011079;28;97055;-79
2021/08/15 11:01:03;;;;;;;;;;;;;;;29.90;29.96;101060.44;5009034;28;98968;-79
2021/08/15 11:03:31;;;;;;;;;;;;;;;29.44;30.26;101062.00;5014513;28;98871;-79
2021/08/15 11:05:58;;;;;;;;;;;;;;;29.12;30.82;101051.88;5016576;28;97951;-79
2021/08/15 11:08:44;;;;;;;;;;;;;;;28.85;31.42;101059.28;5021116;28;97438;-80
2021/08/15 11:11:11;;;;;;;;;;;;;;;28.83;31.03;101045.00;5013285;28;96826;-78
2021/08/15 11:13:39;;;;;;;;;;;;;;;29.07;30.80;101043.38;5021554;28;99514;-79
2021/08/15 11:16:24;;;;;;;;;;;;;;;29.12;31.28;101051.88;5014567;28;97328;-79
2021/08/15 11:19:05;;;;;;;;;;;;;;;28.40;32.72;101047.84;5004390;28;96759;-80
2021/08/15 11:21:46;;;;;;;;;;;;;;;29.17;31.81;101039.47;5004080;28;98350;-80
2021/08/15 11:24:15;;;;;;;;;;;;;;;29.19;32.02;101042.03;5011247;28;99253;-80
2021/08/15 11:26:44;;;;;;;;;;;;;;;29.25;32.15;101041.34;5015127;28;98271;-79
2021/08/15 11:29:30;;;;;;;;;;;;;;;29.36;32.26;101043.78;5025530;28;96889;-79
2021/08/15 11:32:17;;;;;;;;;;;;;;;29.06;31.74;101034.34;5027850;28;99681;-79
2021/08/15 11:34:51;;;;;;;;;;;;;;;28.72;32.12;101022.66;5028872;28;97650;-79
2021/08/15 11:37:19;;;;;;;;;;;;;;;28.84;31.59;101038.53;5025859;28;96785;-79
2021/08/15 11:39:47;;;;;;;;;;;;;;;28.90;31.48;101031.59;5021868;28;96790;-78
2021/08/15 11:42:16;;;;;;;;;;;;;;;28.66;32.15;101034.22;5019529;28;99029;-79
2021/08/15 11:44:55;;;;;;;;;;;;;;;29.08;31.89;101028.75;5020834;28;101031;-80
2021/08/15 11:47:22;;;;;;;;;;;;;;;29.20;31.22;101025.53;5019008;28;96871;-80
2021/08/15 11:49:49;;;;;;;;;;;;;;;29.73;30.41;101026.09;5017900;28;96868;-80
2021/08/15 11:52:18;;;;;;;;;;;;;;;29.64;30.76;101026.09;5021514;28;99368;-79
2021/08/15 11:54:44;;;;;;;;;;;;;;;29.71;30.60;101021.66;5029398;28;98855;-80
2021/08/15 11:57:14;;;;;;;;;;;;;;;30.03;30.22;101019.94;5015193;28;98516;-79
2021/08/15 11:59:41;;;;;;;;;;;;;;;30.19;29.88;101016.34;4994098;28;97250;-79
2021/08/15 12:02:16;;;;;;;;;;;;;;;30.58;29.62;101011.78;5006198;28;98842;-79
2021/08/15 12:04:43;;;;;;;;;;;;;;;30.91;29.07;101009.72;5011791;28;99394;-79
2021/08/15 12:07:09;;;;;;;;;;;;;;;31.45;28.40;101015.16;5014658;28;96881;-80
2021/08/15 12:09:37;;;;;;;;;;;;;;;31.34;27.92;101008.25;5014437;28;97038;-80
2021/08/15 12:12:05;;;;;;;;;;;;;;;31.45;28.49;101012.41;4999492;28;98930;-80
2021/08/15 12:14:33;;;;;;;;;;;;;;;31.32;28.70;101013.03;4996877;28;99230;-79
2021/08/15 12:16:59;;;;;;;;;;;;;;;31.54;28.25;101011.31;4997434;28;96669;-79
2021/08/15 12:19:26;;;;;;;;;;;;;;;31.58;27.92;101018.09;5020658;28;96987;-80
2021/08/15 12:21:52;;;;;;;;;;;;;;;32.32;27.21;101006.28;5029909;28;97835;-77
2021/08/15 12:24:19;;;;;;;;;;;;;;;31.73;27.65;101005.38;5033549;28;98313;-78
2021/08/15 12:26:55;;;;;;;;;;;;;;;30.99;28.95;101004.19;5034259;28;96958;-78
2021/08/15 12:29:22;;;;;;;;;;;;;;;30.73;29.23;100995.50;5035297;28;97232;-80
2021/08/15 12:32:02;;;;;;;;;;;;;;;30.40;29.73;100995.63;5033925;28;97881;-78
2021/08/15 12:34:28;;;;;;;;;;;;;;;30.48;29.54;101002.91;5033986;28;100142;-80
2021/08/15 12:36:55;;;;;;;;;;;;;;;30.46;29.65;100997.63;5029717;28;96738;-80
2021/08/15 12:39:26;;;;;;;;;;;;;;;30.51;29.52;100994.44;5022419;28;97685;-79
2021/08/15 12:41:55;;;;;;;;;;;;;;;30.33;29.65;100993.78;5020857;28;97668;-79
2021/08/15 12:44:23;;;;;;;;;;;;;;;30.55;29.54;100992.19;5025705;28;96844;-79
2021/08/15 12:47:04;;;;;;;;;;;;;;;30.75;29.54;100983.38;5026135;28;96783;-79